Time;durP1;ratioP1;P1;durP2;ratioP2;P2;SDS_P1;SDS_P2;PMS_P1;PMS_P2;Temp;Humidity;BMP_temperature;BMP_pressure;BME280_temperature;BME280_humidity;BME280_pressure;Samples;Min_cycle;Max_cycle;Signal;HPM_P1;HPM_P2
2022/06/07 00:00:15;;;;;;;11.05;5.95;;;12.90;99.90;;;;;;4989090;28;20493;-55
2022/06/07 00:02:41;;;;;;;16.23;6.40;;;12.90;99.90;;;;;;4986593;28;20046;-58
2022/06/07 00:05:08;;;;;;;14.35;6.78;;;12.90;99.90;;;;;;4975626;28;20072;-58
2022/06/07 00:07:33;;;;;;;15.63;6.03;;;12.90;99.90;;;;;;4990773;28;20046;-57
2022/06/07 00:09:59;;;;;;;12.02;6.55;;;12.90;99.90;;;;;;4993346;28;20042;-58
2022/06/07 00:12:26;;;;;;;16.90;7.38;;;12.90;99.90;;;;;;4996024;28;20046;-58
2022/06/07 00:14:52;;;;;;;13.15;6.20;;;12.90;99.90;;;;;;4986548;28;20050;-59
2022/06/07 00:17:18;;;;;;;13.77;6.55;;;12.90;99.90;;;;;;4986900;28;20132;-59
2022/06/07 00:19:44;;;;;;;12.95;6.10;;;12.90;99.90;;;;;;4987627;28;20124;-59
2022/06/07 00:22:10;;;;;;;15.02;6.07;;;12.90;99.90;;;;;;4976704;28;20363;-59
2022/06/07 00:24:37;;;;;;;11.30;6.05;;;12.90;99.90;;;;;;4986509;28;20041;-58
2022/06/07 00:27:03;;;;;;;12.80;6.45;;;12.90;99.90;;;;;;4991250;28;20154;-57
2022/06/07 00:29:29;;;;;;;11.50;6.32;;;12.90;99.90;;;;;;4990154;28;20073;-55
2022/06/07 00:31:56;;;;;;;15.52;7.03;;;12.90;99.90;;;;;;4990119;28;20038;-57
2022/06/07 00:34:23;;;;;;;18.45;6.88;;;12.90;99.90;;;;;;4993230;28;20047;-58
2022/06/07 00:36:48;;;;;;;13.63;5.95;;;12.90;99.90;;;;;;4985703;28;20037;-56
2022/06/07 00:39:14;;;;;;;12.52;5.60;;;12.90;99.90;;;;;;4994092;28;20050;-59
2022/06/07 00:41:40;;;;;;;11.93;6.10;;;12.90;99.90;;;;;;4988825;28;20206;-60
2022/06/07 00:44:21;;;;;;;16.33;6.10;;;12.90;99.90;;;;;;4986555;28;20768;-60
2022/06/07 00:47:12;;;;;;;11.15;5.90;;;12.90;99.90;;;;;;4993303;28;20115;-61
2022/06/07 00:49:50;;;;;;;16.35;6.25;;;12.90;99.90;;;;;;4995534;28;20493;-59
2022/06/07 00:52:18;;;;;;;12.75;5.13;;;12.90;99.90;;;;;;4995100;28;20046;-61
2022/06/07 00:54:43;;;;;;;15.07;5.18;;;12.90;99.90;;;;;;5001385;28;20072;-59
2022/06/07 00:57:09;;;;;;;11.50;5.70;;;12.90;99.90;;;;;;4995096;28;20305;-60
2022/06/07 00:59:35;;;;;;;10.38;5.53;;;12.90;99.90;;;;;;4990667;28;20049;-60
2022/06/07 01:02:01;;;;;;;13.40;6.55;;;12.80;99.90;;;;;;4990723;28;20420;-59
2022/06/07 01:04:27;;;;;;;8.68;5.82;;;13.00;99.90;;;;;;4974583;28;20057;-59
2022/06/07 01:12:25;;;;;;;10.75;5.85;;;13.00;99.90;;;;;;4993933;28;20046;-59
2022/06/07 01:14:50;;;;;;;8.38;5.57;;;13.00;99.90;;;;;;4971826;28;20034;-59
2022/06/07 01:17:17;;;;;;;13.05;6.05;;;13.00;99.90;;;;;;4980576;28;20832;-59
2022/06/07 01:19:43;;;;;;;10.20;5.88;;;13.00;99.90;;;;;;4971102;28;20038;-58
2022/06/07 01:22:09;;;;;;;13.43;6.88;;;13.00;99.90;;;;;;4989705;28;20118;-60
2022/06/07 01:24:36;;;;;;;14.07;6.60;;;13.00;99.90;;;;;;4985801;28;20571;-60
2022/06/07 01:27:02;;;;;;;13.75;6.38;;;13.00;99.90;;;;;;4990621;28;20050;-61
2022/06/07 01:29:28;;;;;;;10.38;5.85;;;13.00;99.90;;;;;;4996876;28;20054;-61
2022/06/07 01:31:54;;;;;;;10.82;6.07;;;13.00;99.90;;;;;;4987049;28;20411;-60
2022/06/07 01:34:20;;;;;;;13.02;6.88;;;13.00;99.90;;;;;;4969359;28;20042;-61
2022/06/07 01:36:45;;;;;;;12.13;6.70;;;13.00;99.90;;;;;;4992454;28;20049;-59
2022/06/07 01:41:55;;;;;;;;;;;13.00;99.90;;;;;;4988834;28;20427;-59
2022/06/07 01:44:30;;;;;;;14.18;5.85;;;13.00;99.90;;;;;;4989130;28;19939;-59
2022/06/07 01:46:58;;;;;;;12.75;6.70;;;13.00;99.90;;;;;;5005162;28;20046;-59
2022/06/07 01:49:24;;;;;;;12.75;6.38;;;13.00;99.90;;;;;;4986542;28;20037;-59
2022/06/07 01:51:51;;;;;;;12.55;7.45;;;13.00;99.90;;;;;;4959581;28;20083;-60
2022/06/07 01:54:17;;;;;;;11.43;6.88;;;13.10;99.90;;;;;;4993039;28;20058;-61
2022/06/07 01:56:42;;;;;;;12.45;6.10;;;13.00;99.90;;;;;;4979029;28;20065;-59
2022/06/07 01:59:09;;;;;;;13.55;7.18;;;13.00;99.90;;;;;;4992178;28;20046;-60
2022/06/07 02:01:35;;;;;;;13.38;6.95;;;13.10;99.90;;;;;;4985381;28;20142;-59
2022/06/07 02:04:02;;;;;;;12.02;7.03;;;13.00;99.90;;;;;;4982035;28;20061;-60
2022/06/07 02:06:27;;;;;;;13.93;7.65;;;12.90;99.90;;;;;;4980792;28;20042;-59
2022/06/07 02:08:53;;;;;;;9.75;7.00;;;12.80;99.90;;;;;;4968124;28;20531;-59
2022/06/07 02:11:24;;;;;;;16.52;8.27;;;12.80;99.90;;;;;;4994692;28;20050;-60
2022/06/07 02:13:52;;;;;;;16.83;8.00;;;12.70;99.90;;;;;;4987635;28;20053;-59
2022/06/07 02:16:18;;;;;;;11.60;7.63;;;12.60;99.90;;;;;;4976032;28;20049;-61
2022/06/07 02:18:46;;;;;;;13.52;7.65;;;12.40;99.90;;;;;;4988695;28;20052;-59
2022/06/07 02:21:13;;;;;;;12.73;7.85;;;12.40;99.90;;;;;;4989833;28;20041;-57
2022/06/07 02:23:39;;;;;;;15.38;9.27;;;12.40;99.90;;;;;;4989806;28;20049;-57
2022/06/07 02:26:14;;;;;;;14.95;8.73;;;12.40;99.90;;;;;;5007228;28;20046;-58
2022/06/07 02:28:42;;;;;;;15.00;7.82;;;12.40;99.90;;;;;;5000573;28;21585;-59
2022/06/07 02:31:10;;;;;;;12.80;8.80;;;12.40;99.90;;;;;;4987592;28;20046;-59
2022/06/07 02:33:38;;;;;;;18.63;8.90;;;12.40;99.90;;;;;;4994695;28;20073;-59
2022/06/07 02:36:06;;;;;;;19.33;8.63;;;12.30;99.90;;;;;;4985148;28;20046;-59
2022/06/07 02:38:32;;;;;;;17.75;7.40;;;12.20;99.90;;;;;;4992743;28;20038;-60
2022/06/07 02:40:58;;;;;;;14.80;7.93;;;12.10;99.90;;;;;;4988411;28;20049;-61
2022/06/07 02:43:24;;;;;;;13.32;7.75;;;12.00;99.90;;;;;;4973565;28;20046;-58
2022/06/07 02:45:50;;;;;;;18.38;8.05;;;11.90;99.90;;;;;;4984964;28;20052;-60
2022/06/07 02:48:16;;;;;;;19.65;8.70;;;12.00;99.90;;;;;;4992533;28;20196;-60
2022/06/07 02:50:41;;;;;;;18.02;8.13;;;12.00;99.90;;;;;;4982370;28;20054;-60
2022/06/07 02:53:07;;;;;;;18.67;8.68;;;11.90;99.90;;;;;;4983677;28;20038;-60
2022/06/07 02:55:33;;;;;;;20.25;9.10;;;11.90;99.90;;;;;;4992020;28;20053;-60
2022/06/07 02:57:59;;;;;;;19.90;8.43;;;11.80;99.90;;;;;;4985392;28;20734;-58
2022/06/07 03:00:25;;;;;;;20.45;7.93;;;11.80;99.90;;;;;;4974145;28;20308;-59
2022/06/07 03:02:51;;;;;;;13.95;7.07;;;11.80;99.90;;;;;;4985322;28;20038;-58
2022/06/07 03:05:17;;;;;;;17.77;8.60;;;11.80;99.90;;;;;;4993657;28;20048;-59
2022/06/07 03:07:43;;;;;;;14.95;6.93;;;11.80;99.90;;;;;;4998496;28;20093;-59
2022/06/07 03:10:11;;;;;;;14.40;8.65;;;11.80;99.90;;;;;;4997932;28;20481;-59
2022/06/07 03:12:38;;;;;;;17.95;8.07;;;11.90;99.90;;;;;;4999037;28;20201;-58
2022/06/07 03:15:05;;;;;;;21.92;8.25;;;11.90;99.90;;;;;;4989835;28;20119;-59
2022/06/07 03:17:31;;;;;;;16.17;7.57;;;11.80;99.90;;;;;;4976659;28;20108;-59
2022/06/07 03:19:56;;;;;;;14.88;7.15;;;11.80;99.90;;;;;;4985160;28;20489;-59
2022/06/07 03:22:23;;;;;;;11.10;6.78;;;11.70;99.90;;;;;;4992000;28;20401;-61
2022/06/07 03:24:49;;;;;;;12.82;6.25;;;11.70;99.90;;;;;;4987569;28;20050;-59
2022/06/07 03:27:15;;;;;;;13.00;6.35;;;11.70;99.90;;;;;;4987065;28;20174;-59
2022/06/07 03:29:41;;;;;;;14.65;6.30;;;11.70;99.90;;;;;;4985828;28;20520;-57
2022/06/07 03:32:08;;;;;;;11.65;6.13;;;11.70;99.90;;;;;;4990717;28;20088;-59
2022/06/07 03:34:34;;;;;;;13.40;5.55;;;11.60;99.90;;;;;;4985087;28;20113;-61
2022/06/07 03:37:01;;;;;;;10.13;5.95;;;11.60;99.90;;;;;;4988445;28;20042;-61
2022/06/07 03:39:27;;;;;;;14.57;6.55;;;11.60;99.90;;;;;;4985215;28;20045;-60
2022/06/07 03:41:54;;;;;;;14.18;5.38;;;11.60;99.90;;;;;;4996098;28;20214;-61
2022/06/07 03:44:20;;;;;;;13.55;5.38;;;11.50;99.90;;;;;;4990370;28;20223;-59
2022/06/07 03:46:47;;;;;;;12.30;5.10;;;11.60;99.90;;;;;;4985570;28;20137;-60
2022/06/07 03:49:14;;;;;;;14.20;5.45;;;11.50;99.90;;;;;;4991074;28;20113;-61
2022/06/07 03:51:40;;;;;;;12.70;5.50;;;11.60;99.90;;;;;;5008921;28;20041;-61
2022/06/07 03:54:06;;;;;;;13.55;5.20;;;11.60;99.90;;;;;;4988050;28;20072;-61
2022/06/07 03:56:33;;;;;;;19.83;5.88;;;11.60;99.90;;;;;;4993730;28;20045;-60
2022/06/07 03:58:58;;;;;;;10.35;5.25;;;11.70;99.90;;;;;;4991493;28;20512;-60
2022/06/07 04:01:27;;;;;;;9.48;5.28;;;11.70;99.90;;;;;;4993604;28;20142;-61
2022/06/07 04:03:55;;;;;;;12.63;5.82;;;11.70;99.90;;;;;;4989525;28;20057;-60
2022/06/07 04:06:24;;;;;;;12.60;5.82;;;11.70;99.90;;;;;;4991677;28;20050;-59
2022/06/07 04:08:50;;;;;;;11.38;5.50;;;11.70;99.90;;;;;;4993277;28;20464;-61
2022/06/07 04:11:20;;;;;;;13.02;6.00;;;11.70;99.90;;;;;;4999246;28;20042;-60
2022/06/07 04:13:47;;;;;;;17.42;5.95;;;11.80;99.90;;;;;;4997028;28;20046;-60
2022/06/07 04:16:16;;;;;;;13.88;5.88;;;11.80;99.90;;;;;;4991497;28;20037;-61
2022/06/07 04:18:42;;;;;;;12.20;5.93;;;11.80;99.90;;;;;;4986218;28;20325;-59
2022/06/07 04:21:09;;;;;;;12.85;6.20;;;11.80;99.90;;;;;;4987051;28;20076;-61
2022/06/07 04:23:36;;;;;;;10.35;6.13;;;11.80;99.90;;;;;;4987242;28;20481;-59
2022/06/07 04:26:10;;;;;;;15.85;5.78;;;11.80;99.90;;;;;;4994252;28;20042;-59
2022/06/07 04:28:36;;;;;;;15.80;6.72;;;12.00;99.90;;;;;;4994426;28;20042;-60
2022/06/07 04:31:03;;;;;;;10.15;5.82;;;11.80;99.90;;;;;;4975559;28;20056;-60
2022/06/07 04:33:28;;;;;;;14.68;6.43;;;11.90;99.90;;;;;;4984802;28;20120;-60
2022/06/07 04:35:54;;;;;;;9.20;4.90;;;11.90;99.90;;;;;;4988584;28;20034;-61
2022/06/07 04:38:20;;;;;;;19.83;6.30;;;11.90;99.90;;;;;;4990995;28;20053;-60
2022/06/07 04:40:45;;;;;;;12.10;5.65;;;11.90;99.90;;;;;;4978587;23;20053;-60
2022/06/07 04:43:12;;;;;;;17.00;5.53;;;11.80;99.90;;;;;;4935392;28;20631;-59
2022/06/07 04:45:41;;;;;;;12.88;5.43;;;11.90;99.90;;;;;;4933280;28;20050;-57
2022/06/07 04:48:08;;;;;;;14.68;6.50;;;11.90;99.90;;;;;;4932222;28;20051;-58
2022/06/07 04:50:34;;;;;;;19.33;5.72;;;11.90;99.90;;;;;;4918171;29;20070;-58
2022/06/07 04:53:00;;;;;;;12.18;5.28;;;11.90;99.90;;;;;;4939851;28;20051;-60
2022/06/07 04:55:26;;;;;;;11.50;5.07;;;11.90;99.90;;;;;;4935602;28;20042;-59
2022/06/07 04:57:52;;;;;;;13.98;5.20;;;12.00;99.90;;;;;;4936445;28;20044;-61
2022/06/07 05:00:18;;;;;;;10.23;5.63;;;12.00;99.90;;;;;;4937487;28;20046;-60
2022/06/07 05:02:46;;;;;;;11.82;6.03;;;12.00;99.90;;;;;;4933829;28;20047;-59
2022/06/07 05:05:14;;;;;;;17.90;5.88;;;12.00;99.90;;;;;;4937383;28;20071;-57
2022/06/07 05:07:40;;;;;;;15.95;6.47;;;12.00;99.90;;;;;;4934469;28;20066;-58
2022/06/07 05:10:08;;;;;;;17.98;7.13;;;12.00;99.90;;;;;;4937545;28;20062;-59
2022/06/07 05:12:35;;;;;;;15.85;6.30;;;12.00;99.90;;;;;;4929494;28;20448;-58
2022/06/07 05:15:01;;;;;;;12.90;6.80;;;12.00;99.90;;;;;;4932255;28;20398;-58
2022/06/07 05:17:27;;;;;;;11.73;6.35;;;12.00;99.90;;;;;;4920599;29;20094;-58
2022/06/07 05:19:53;;;;;;;12.77;6.60;;;11.90;99.90;;;;;;4921244;28;20074;-59
2022/06/07 05:22:19;;;;;;;12.25;6.50;;;11.80;99.90;;;;;;4939084;28;20106;-57
2022/06/07 05:24:44;;;;;;;13.82;6.35;;;11.90;99.90;;;;;;4953307;28;20043;-59
2022/06/07 05:27:16;;;;;;;13.32;6.57;;;11.90;99.90;;;;;;4919362;29;20091;-61
2022/06/07 05:29:48;;;;;;;13.05;6.38;;;11.90;99.90;;;;;;4947733;28;20130;-59
2022/06/07 05:32:15;;;;;;;11.77;5.38;;;11.80;99.90;;;;;;4930131;28;20047;-59
2022/06/07 05:34:41;;;;;;;11.55;5.68;;;11.80;99.90;;;;;;4932879;28;20039;-58
2022/06/07 05:37:07;;;;;;;11.48;5.65;;;11.90;99.90;;;;;;4936050;28;20079;-59
2022/06/07 05:39:32;;;;;;;10.23;5.13;;;11.90;99.90;;;;;;4957632;28;20046;-61
2022/06/07 05:42:00;;;;;;;10.82;4.28;;;11.90;99.90;;;;;;4938183;28;20051;-60
2022/06/07 05:44:27;;;;;;;10.70;3.42;;;11.90;99.90;;;;;;4936526;28;20310;-59
2022/06/07 05:46:53;;;;;;;13.80;2.83;;;11.90;99.90;;;;;;4934322;28;20178;-58
2022/06/07 05:49:19;;;;;;;7.82;2.63;;;11.90;99.90;;;;;;4954513;28;20054;-57
2022/06/07 05:51:46;;;;;;;8.98;2.33;;;11.80;99.90;;;;;;4935524;28;20047;-57
2022/06/07 05:54:13;;;;;;;8.20;2.20;;;11.90;99.90;;;;;;4931500;29;20043;-60
2022/06/07 05:56:39;;;;;;;7.85;2.90;;;11.90;99.90;;;;;;4933039;28;20043;-58
2022/06/07 05:59:05;;;;;;;14.25;2.80;;;11.90;99.90;;;;;;4936471;28;20098;-58
2022/06/07 06:01:32;;;;;;;8.73;2.45;;;11.90;99.90;;;;;;4947680;28;20044;-58
2022/06/07 06:03:58;;;;;;;5.15;2.08;;;11.90;99.90;;;;;;4908655;29;20047;-56
2022/06/07 06:06:24;;;;;;;7.35;2.28;;;11.90;99.90;;;;;;4930483;29;20487;-57
2022/06/07 06:11:35;;;;;;;5.97;2.00;;;11.90;99.90;;;;;;4939013;28;20133;-60
2022/06/07 06:14:01;;;;;;;14.25;3.25;;;12.00;99.90;;;;;;4934411;28;20047;-57
2022/06/07 06:16:27;;;;;;;8.15;2.83;;;12.00;99.90;;;;;;4914314;29;20461;-56
2022/06/07 06:18:56;;;;;;;13.75;3.00;;;12.10;99.90;;;;;;4936559;28;20050;-57
2022/06/07 06:21:25;;;;;;;8.55;2.80;;;12.20;99.90;;;;;;4936514;28;20039;-61
2022/06/07 06:23:51;;;;;;;11.52;3.05;;;12.30;99.90;;;;;;4929339;28;20166;-57
2022/06/07 06:26:19;;;;;;;12.63;2.72;;;12.30;99.90;;;;;;4933690;28;20067;-56
2022/06/07 06:28:45;;;;;;;11.70;3.05;;;12.40;99.90;;;;;;4934769;28;20391;-56
2022/06/07 06:31:13;;;;;;;13.27;3.70;;;12.40;99.90;;;;;;4939173;28;20039;-57
2022/06/07 06:33:41;;;;;;;12.38;2.95;;;12.50;99.90;;;;;;4934122;28;20047;-60
2022/06/07 06:36:09;;;;;;;15.50;3.10;;;12.50;99.90;;;;;;4953135;28;20074;-58
2022/06/07 06:38:36;;;;;;;13.48;2.70;;;12.50;99.90;;;;;;4934288;28;20106;-59
2022/06/07 06:41:13;;;;;;;15.95;3.50;;;12.60;99.90;;;;;;4950169;28;20703;-57
2022/06/07 06:43:39;;;;;;;14.32;3.70;;;12.60;99.90;;;;;;4932328;28;20520;-57
2022/06/07 06:46:29;;;;;;;17.08;3.55;;;12.60;99.90;;;;;;4935108;29;20035;-61
2022/06/07 06:48:56;;;;;;;13.80;3.45;;;12.70;99.90;;;;;;4932799;28;20046;-59
2022/06/07 06:51:24;;;;;;;14.48;3.30;;;12.70;99.90;;;;;;4932012;28;20035;-58
2022/06/07 06:53:50;;;;;;;13.40;2.75;;;12.80;99.90;;;;;;4944580;28;20035;-58
2022/06/07 06:56:22;;;;;;;11.15;3.00;;;12.80;99.90;;;;;;4928008;28;20058;-61
2022/06/07 06:58:50;;;;;;;11.82;2.70;;;13.00;99.90;;;;;;4948694;28;20051;-59
2022/06/07 07:01:18;;;;;;;18.75;3.00;;;13.10;99.90;;;;;;4929900;28;20063;-59
2022/06/07 07:03:44;;;;;;;13.20;3.22;;;13.10;99.90;;;;;;4910587;29;20059;-59
2022/06/07 07:06:12;;;;;;;18.80;3.83;;;13.10;99.90;;;;;;4950399;28;20560;-58
2022/06/07 07:08:40;;;;;;;11.35;2.50;;;13.10;99.90;;;;;;4930208;28;20498;-60
2022/06/07 07:11:11;;;;;;;14.05;2.50;;;13.10;99.90;;;;;;4916969;28;20945;-58
2022/06/07 07:13:38;;;;;;;10.65;2.22;;;13.10;99.90;;;;;;4946046;28;20058;-60
2022/06/07 07:16:07;;;;;;;14.07;2.50;;;13.00;99.90;;;;;;4933883;28;20093;-59
2022/06/07 07:18:33;;;;;;;14.77;2.83;;;13.00;99.90;;;;;;4932829;28;20043;-59
2022/06/07 07:21:04;;;;;;;9.60;2.42;;;13.00;99.90;;;;;;4902650;29;20301;-61
2022/06/07 07:23:29;;;;;;;10.18;2.15;;;12.90;99.90;;;;;;4937643;28;20045;-58
2022/06/07 07:26:06;;;;;;;13.27;2.92;;;12.90;99.90;;;;;;4946026;28;20047;-60
2022/06/07 07:28:33;;;;;;;9.88;2.20;;;12.90;99.90;;;;;;4928805;28;20114;-59
2022/06/07 07:31:05;;;;;;;15.50;2.55;;;12.90;99.90;;;;;;4931292;28;20043;-59
2022/06/07 07:33:31;;;;;;;11.98;2.53;;;12.80;99.90;;;;;;4950504;28;20035;-62
2022/06/07 07:35:59;;;;;;;16.35;2.78;;;12.80;99.90;;;;;;4933463;28;20047;-57
2022/06/07 07:38:25;;;;;;;12.60;2.58;;;12.80;99.90;;;;;;4914979;28;20183;-59
2022/06/07 07:40:51;;;;;;;12.10;3.38;;;12.80;99.90;;;;;;4917329;28;20442;-58
2022/06/07 07:43:18;;;;;;;11.82;2.75;;;12.80;99.90;;;;;;4927478;28;20055;-58
2022/06/07 07:45:44;;;;;;;9.75;2.28;;;12.80;99.90;;;;;;4933976;28;20446;-61
2022/06/07 07:48:10;;;;;;;11.38;1.90;;;12.90;99.90;;;;;;4921541;29;20039;-60
2022/06/07 07:50:38;;;;;;;9.80;2.15;;;12.90;99.90;;;;;;4935607;28;20118;-61
2022/06/07 07:53:03;;;;;;;15.15;3.38;;;13.00;99.90;;;;;;4938384;29;20039;-59
2022/06/07 07:55:29;;;;;;;13.63;2.15;;;13.10;99.90;;;;;;4933228;29;20043;-58
2022/06/07 07:57:55;;;;;;;10.18;2.00;;;13.10;99.90;;;;;;4936522;28;20569;-57
2022/06/07 08:00:21;;;;;;;8.50;1.85;;;13.10;99.90;;;;;;4937792;28;20054;-61
2022/06/07 08:02:46;;;;;;;11.40;2.05;;;13.20;99.90;;;;;;4915304;29;20136;-58
2022/06/07 08:05:12;;;;;;;9.02;1.85;;;13.30;99.90;;;;;;4936833;28;20035;-59
2022/06/07 08:07:38;;;;;;;10.73;2.38;;;13.40;99.90;;;;;;4934096;28;20114;-59
2022/06/07 08:10:05;;;;;;;9.43;3.17;;;13.50;99.90;;;;;;4937732;28;20043;-59
2022/06/07 08:12:31;;;;;;;8.10;1.63;;;13.70;99.90;;;;;;4914625;29;20055;-57
2022/06/07 08:14:58;;;;;;;13.55;3.40;;;13.80;99.90;;;;;;4937364;28;20055;-60
2022/06/07 08:17:25;;;;;;;9.07;1.98;;;13.80;99.90;;;;;;4928643;28;20055;-59
2022/06/07 08:19:52;;;;;;;6.82;1.65;;;14.00;99.90;;;;;;4933345;28;20246;-58
2022/06/07 08:22:19;;;;;;;9.75;2.00;;;14.00;99.90;;;;;;4937851;28;20058;-58
2022/06/07 08:24:46;;;;;;;9.63;1.98;;;14.00;99.90;;;;;;4931021;28;20062;-57
2022/06/07 08:27:12;;;;;;;7.05;1.70;;;14.10;99.90;;;;;;4918345;29;20054;-58
2022/06/07 08:29:38;;;;;;;7.18;1.67;;;14.20;99.90;;;;;;4942496;28;20039;-60
2022/06/07 08:32:04;;;;;;;9.90;2.10;;;14.20;99.90;;;;;;4948592;28;20047;-59
2022/06/07 08:37:33;;;;;;;14.27;2.28;;;14.20;99.90;;;;;;4953434;28;20070;-58
2022/06/07 08:40:03;;;;;;;;;;;14.20;99.90;;;;;;4922122;28;20039;-59
2022/06/07 08:42:32;;;;;;;8.25;1.98;;;14.10;99.90;;;;;;4952297;28;19934;-58
2022/06/07 08:45:00;;;;;;;10.48;1.77;;;14.10;99.90;;;;;;4931286;28;20039;-56
2022/06/07 08:47:46;;;;;;;7.05;1.63;;;14.10;99.90;;;;;;4930837;28;20051;-57
2022/06/07 08:50:27;;;;;;;9.43;1.90;;;14.00;99.90;;;;;;4930845;28;20066;-58
2022/06/07 08:53:17;;;;;;;11.25;1.30;;;14.00;99.90;;;;;;4939028;28;20074;-58
2022/06/07 08:55:47;;;;;;;7.22;1.70;;;13.90;99.90;;;;;;4936015;28;20039;-59
2022/06/07 08:58:28;;;;;;;6.18;1.60;;;13.70;99.90;;;;;;4941045;28;20126;-58
2022/06/07 09:00:57;;;;;;;9.68;1.98;;;13.70;99.90;;;;;;4944429;28;20170;-57
2022/06/07 09:03:29;;;;;;;5.78;1.85;;;13.60;99.90;;;;;;4942535;28;20121;-60
2022/06/07 09:05:57;;;;;;;9.90;1.83;;;13.60;99.90;;;;;;4911549;28;20093;-58
2022/06/07 09:08:25;;;;;;;9.60;1.52;;;13.60;99.90;;;;;;4930714;28;20047;-59
2022/06/07 09:13:36;;;;;;;;;;;13.50;99.90;;;;;;4935612;28;20502;-62
2022/06/07 09:16:03;;;;;;;12.63;2.67;;;13.50;99.90;;;;;;4933943;28;19922;-59
2022/06/07 09:18:30;;;;;;;12.32;2.72;;;13.60;99.90;;;;;;4953395;28;20631;-57
2022/06/07 09:21:08;;;;;;;12.38;2.70;;;13.80;99.90;;;;;;4933918;28;20151;-56
2022/06/07 09:23:49;;;;;;;15.63;2.67;;;14.00;99.90;;;;;;4929884;28;20227;-59
2022/06/07 09:26:17;;;;;;;12.07;1.90;;;14.00;99.90;;;;;;4930870;28;20039;-59
2022/06/07 09:28:47;;;;;;;14.77;2.78;;;14.10;99.90;;;;;;4932949;28;20058;-59
2022/06/07 09:31:17;;;;;;;11.40;2.50;;;14.10;99.90;;;;;;4943163;28;20101;-61
2022/06/07 09:34:04;;;;;;;7.65;1.98;;;14.00;99.90;;;;;;4940433;28;20219;-57
2022/06/07 09:36:35;;;;;;;10.70;2.35;;;14.00;99.90;;;;;;4945268;28;20058;-57
2022/06/07 09:39:13;;;;;;;9.85;1.92;;;14.00;99.90;;;;;;4921215;28;20121;-59
2022/06/07 09:41:44;;;;;;;10.98;1.92;;;14.10;99.90;;;;;;4938313;28;20429;-60
2022/06/07 09:44:29;;;;;;;13.13;1.80;;;14.20;99.90;;;;;;4931593;28;20054;-59
2022/06/07 09:47:15;;;;;;;;;;;14.10;99.90;;;;;;4946113;28;20118;-56
2022/06/07 09:49:43;;;;;;;10.15;2.00;;;14.10;99.90;;;;;;4929747;28;19923;-61
2022/06/07 09:52:21;;;;;;;4.97;1.40;;;14.10;99.90;;;;;;4933359;28;20747;-59
2022/06/07 09:54:50;;;;;;;5.13;1.48;;;14.20;99.90;;;;;;4934151;28;20035;-57
2022/06/07 09:57:18;;;;;;;10.32;1.60;;;14.20;99.90;;;;;;4933185;28;20200;-57
2022/06/07 09:59:56;;;;;;;7.60;2.00;;;14.10;99.90;;;;;;4938949;28;20392;-63
2022/06/07 10:02:42;;;;;;;6.47;1.67;;;14.20;99.90;;;;;;4934548;28;20070;-57
2022/06/07 10:05:16;;;;;;;11.00;2.00;;;14.20;99.90;;;;;;4930915;28;20067;-57
2022/06/07 10:07:52;;;;;;;4.78;1.23;;;14.20;99.90;;;;;;4930930;28;20427;-62
2022/06/07 10:10:24;;;;;;;9.95;2.10;;;14.10;99.90;;;;;;4934150;28;20043;-58
2022/06/07 10:13:14;;;;;;;10.30;2.28;;;14.10;99.90;;;;;;4938347;28;20046;-57
2022/06/07 10:15:54;;;;;;;11.77;1.65;;;14.10;99.90;;;;;;4942547;28;20227;-60
2022/06/07 10:18:29;;;;;;;6.07;1.50;;;14.10;99.90;;;;;;4937005;28;20593;-58
2022/06/07 10:21:25;;;;;;;6.18;1.90;;;14.10;99.90;;;;;;4917827;28;20403;-59
2022/06/07 10:24:02;;;;;;;8.68;1.55;;;14.20;99.90;;;;;;4931777;28;20043;-58
2022/06/07 10:26:31;;;;;;;9.18;2.65;;;14.30;99.90;;;;;;4932123;28;20490;-57
2022/06/07 10:29:18;;;;;;;5.38;1.60;;;14.40;99.90;;;;;;4948192;28;20201;-58
2022/06/07 10:32:08;;;;;;;10.00;1.77;;;14.50;99.90;;;;;;4926970;28;20043;-57
2022/06/07 10:34:48;;;;;;;7.07;1.45;;;14.60;99.90;;;;;;4935490;28;20515;-57
2022/06/07 10:37:38;;;;;;;8.40;1.50;;;14.60;99.90;;;;;;4939103;28;20122;-57
2022/06/07 10:43:32;;;;;;;7.22;1.83;;;14.80;99.90;;;;;;5002451;28;20046;-59
2022/06/07 10:46:01;;;;;;;5.50;1.75;;;14.90;99.90;;;;;;5028146;28;20057;-58
2022/06/07 10:48:39;;;;;;;10.77;2.35;;;15.10;99.90;;;;;;4997194;28;20053;-61
2022/06/07 10:52:20;;;;;;;3.83;1.20;;;15.30;99.90;;;;;;4992011;28;20045;-59
2022/06/07 10:54:03;;;;;;;6.35;1.50;;;15.40;99.90;;;;;;4989167;28;20060;-62
2022/06/07 10:56:37;;;;;;;9.35;2.15;;;15.60;99.90;;;;;;4988348;28;20141;-58
2022/06/07 10:59:15;;;;;;;3.95;1.27;;;15.80;99.90;;;;;;4991445;28;20042;-61
2022/06/07 11:02:00;;;;;;;7.03;1.55;;;15.90;99.90;;;;;;4985553;28;20112;-59
2022/06/07 11:10:14;;;;;;;8.57;1.95;;;15.90;99.90;;;;;;4999240;28;20049;-60
2022/06/07 11:12:56;;;;;;;7.22;1.60;;;15.90;99.90;;;;;;4998343;28;20052;-61
2022/06/07 11:15:35;;;;;;;6.00;1.85;;;16.10;99.90;;;;;;4977864;28;20044;-60
2022/06/07 11:18:10;;;;;;;6.88;1.58;;;16.10;99.90;;;;;;5000363;28;20069;-60
2022/06/07 11:20:47;;;;;;;6.35;1.70;;;16.20;99.90;;;;;;4988354;28;20081;-62
2022/06/07 11:23:18;;;;;;;7.25;2.60;;;16.10;99.90;;;;;;4995419;28;20497;-62
2022/06/07 11:26:03;;;;;;;4.82;1.48;;;16.10;99.90;;;;;;4999950;28;20496;-59
2022/06/07 11:28:41;;;;;;;4.10;1.73;;;16.30;99.90;;;;;;4994622;28;20085;-64
2022/06/07 11:31:35;;;;;;;6.50;1.67;;;16.30;99.90;;;;;;5005484;28;20176;-60
2022/06/07 11:34:23;;;;;;;4.93;1.50;;;16.40;99.90;;;;;;4995587;28;20053;-61
2022/06/07 11:36:56;;;;;;;4.50;1.15;;;16.50;99.90;;;;;;4988935;28;20153;-63
2022/06/07 11:39:30;;;;;;;;;;;16.30;99.90;;;;;;4985895;28;20049;-59
2022/06/07 11:42:17;;;;;;;2.50;1.00;;;16.30;99.90;;;;;;4974432;28;20296;-57
2022/06/07 11:44:43;;;;;;;5.32;1.55;;;16.20;99.90;;;;;;4995090;28;20537;-64
2022/06/07 11:47:09;;;;;;;7.80;1.70;;;16.00;99.90;;;;;;4973253;28;20125;-60
2022/06/07 11:49:48;;;;;;;8.93;1.50;;;16.10;99.90;;;;;;4974767;28;20132;-60
2022/06/07 11:52:13;;;;;;;8.38;1.27;;;16.10;99.90;;;;;;4989302;28;20449;-65
2022/06/07 11:54:54;;;;;;;7.22;1.20;;;15.90;99.90;;;;;;4965977;28;20038;-58
2022/06/07 11:57:32;;;;;;;5.22;1.40;;;16.00;99.90;;;;;;4989792;28;20046;-57
2022/06/07 12:00:00;;;;;;;5.15;1.30;;;16.00;99.90;;;;;;4986229;28;20053;-62
2022/06/07 12:02:32;;;;;;;5.95;1.30;;;16.00;99.90;;;;;;4987451;28;20054;-61
2022/06/07 12:05:41;;;;;;;4.80;1.27;;;16.00;99.90;;;;;;4981797;28;20131;-59
2022/06/07 12:08:32;;;;;;;3.83;0.90;;;15.90;99.90;;;;;;4998538;28;20061;-60
2022/06/07 12:11:23;;;;;;;7.10;1.67;;;16.00;99.90;;;;;;4992394;28;20058;-60
2022/06/07 12:14:26;;;;;;;3.83;1.13;;;16.00;99.90;;;;;;4998264;28;20067;-64
2022/06/07 12:17:00;;;;;;;3.13;1.25;;;16.10;99.90;;;;;;4995280;28;20135;-62
2022/06/07 12:19:35;;;;;;;5.40;1.45;;;16.20;99.90;;;;;;4991541;28;20515;-60
2022/06/07 12:22:07;;;;;;;5.85;1.35;;;16.30;99.90;;;;;;4997342;28;20588;-61
2022/06/07 12:24:43;;;;;;;5.95;1.50;;;16.60;99.90;;;;;;4988701;28;20042;-61
2022/06/07 12:27:18;;;;;;;5.10;1.30;;;16.70;99.90;;;;;;4989438;28;20050;-64
2022/06/07 12:29:44;;;;;;;8.43;1.58;;;17.00;99.90;;;;;;4986679;28;20050;-60
2022/06/07 12:32:33;;;;;;;6.40;1.50;;;17.20;99.90;;;;;;4986492;28;20107;-63
2022/06/07 12:35:12;;;;;;;8.00;1.67;;;17.00;99.90;;;;;;4972128;28;20501;-64
2022/06/07 12:37:38;;;;;;;7.22;1.45;;;16.80;99.90;;;;;;4996786;28;20179;-60
2022/06/07 12:40:22;;;;;;;8.18;2.25;;;16.90;99.90;;;;;;4988376;28;20133;-60
2022/06/07 12:42:48;;;;;;;6.63;1.88;;;16.80;99.90;;;;;;4994702;28;20425;-62
2022/06/07 12:45:19;;;;;;;5.28;1.80;;;16.90;99.90;;;;;;4989354;28;20349;-60
2022/06/07 12:47:46;;;;;;;7.78;1.95;;;16.90;99.90;;;;;;4984921;28;20500;-60
2022/06/07 12:50:21;;;;;;;7.00;1.67;;;17.10;99.90;;;;;;5005548;28;20038;-62
2022/06/07 12:52:54;;;;;;;7.63;2.22;;;17.10;99.90;;;;;;4987955;28;20074;-59
2022/06/07 12:55:24;;;;;;;8.23;2.10;;;17.20;99.90;;;;;;4987233;28;20496;-63
2022/06/07 12:58:15;;;;;;;10.88;2.05;;;17.10;99.90;;;;;;4975324;28;20136;-59
2022/06/07 13:00:44;;;;;;;6.97;1.98;;;16.90;99.90;;;;;;4986916;28;20038;-61
2022/06/07 13:03:16;;;;;;;7.40;1.63;;;16.60;99.90;;;;;;4986084;28;20044;-66
2022/06/07 13:05:42;;;;;;;11.40;2.65;;;16.30;99.90;;;;;;4992528;28;20042;-61
2022/06/07 13:08:18;;;;;;;9.75;1.88;;;16.20;99.90;;;;;;4991701;28;20089;-59
2022/06/07 13:10:44;;;;;;;5.82;2.10;;;16.20;99.90;;;;;;4999371;28;20132;-60
2022/06/07 13:13:26;;;;;;;9.70;2.00;;;16.10;99.90;;;;;;4989483;28;20042;-62
2022/06/07 13:16:14;;;;;;;7.38;1.70;;;16.20;99.90;;;;;;4997587;28;20042;-61
2022/06/07 13:19:00;;;;;;;7.13;1.83;;;16.10;99.90;;;;;;4993261;28;20649;-62
2022/06/07 13:21:39;;;;;;;9.82;2.42;;;16.00;99.90;;;;;;4994713;28;20370;-60